sensor_id;sensor_type;location;lat;lon;timestamp;P1;durP1;ratioP1;P2;durP2;ratioP2
77955;SDS011;67152;36.266;32.294;2023-11-19T00:02:33;9.88;;;1.70;;
77955;SDS011;67152;36.266;32.294;2023-11-19T00:05:20;11.27;;;1.58;;
77955;SDS011;67152;36.266;32.294;2023-11-19T00:08:05;10.32;;;1.77;;
77955;SDS011;67152;36.266;32.294;2023-11-19T00:10:51;9.48;;;1.52;;
77955;SDS011;67152;36.266;32.294;2023-11-19T00:13:35;6.25;;;1.30;;
77955;SDS011;67152;36.266;32.294;2023-11-19T00:16:20;10.18;;;1.40;;
77955;SDS011;67152;36.266;32.294;2023-11-19T00:19:05;10.02;;;2.10;;
77955;SDS011;67152;36.266;32.294;2023-11-19T00:21:54;5.18;;;1.60;;
77955;SDS011;67152;36.266;32.294;2023-11-19T00:24:39;11.55;;;1.90;;
77955;SDS011;67152;36.266;32.294;2023-11-19T00:27:24;9.35;;;2.40;;
77955;SDS011;67152;36.266;32.294;2023-11-19T00:30:09;9.20;;;2.30;;
77955;SDS011;67152;36.266;32.294;2023-11-19T00:32:54;7.85;;;1.98;;
77955;SDS011;67152;36.266;32.294;2023-11-19T00:35:39;11.50;;;2.25;;
77955;SDS011;67152;36.266;32.294;2023-11-19T00:38:24;9.85;;;2.10;;
77955;SDS011;67152;36.266;32.294;2023-11-19T00:41:09;8.32;;;2.03;;
77955;SDS011;67152;36.266;32.294;2023-11-19T00:43:54;10.80;;;1.75;;
77955;SDS011;67152;36.266;32.294;2023-11-19T00:46:39;8.65;;;1.92;;
77955;SDS011;67152;36.266;32.294;2023-11-19T00:49:28;10.27;;;2.67;;
77955;SDS011;67152;36.266;32.294;2023-11-19T00:52:12;11.57;;;1.75;;
77955;SDS011;67152;36.266;32.294;2023-11-19T00:54:57;11.52;;;1.50;;
77955;SDS011;67152;36.266;32.294;2023-11-19T00:57:43;18.38;;;2.45;;
77955;SDS011;67152;36.266;32.294;2023-11-19T01:00:28;10.23;;;1.85;;
77955;SDS011;67152;36.266;32.294;2023-11-19T01:03:12;6.10;;;1.48;;
77955;SDS011;67152;36.266;32.294;2023-11-19T01:05:59;12.27;;;1.77;;
77955;SDS011;67152;36.266;32.294;2023-11-19T01:08:47;10.40;;;2.03;;
77955;SDS011;67152;36.266;32.294;2023-11-19T01:11:32;10.35;;;1.70;;
77955;SDS011;67152;36.266;32.294;2023-11-19T01:14:17;10.70;;;1.98;;
77955;SDS011;67152;36.266;32.294;2023-11-19T01:17:02;13.35;;;2.08;;
77955;SDS011;67152;36.266;32.294;2023-11-19T01:19:49;9.80;;;1.60;;
77955;SDS011;67152;36.266;32.294;2023-11-19T01:22:34;11.38;;;1.70;;
77955;SDS011;67152;36.266;32.294;2023-11-19T01:25:19;15.68;;;2.72;;
77955;SDS011;67152;36.266;32.294;2023-11-19T01:28:04;12.68;;;2.30;;
77955;SDS011;67152;36.266;32.294;2023-11-19T01:30:52;9.35;;;1.73;;
77955;SDS011;67152;36.266;32.294;2023-11-19T01:33:39;9.77;;;1.73;;
77955;SDS011;67152;36.266;32.294;2023-11-19T01:36:28;11.52;;;2.05;;
77955;SDS011;67152;36.266;32.294;2023-11-19T01:39:22;9.20;;;2.30;;
77955;SDS011;67152;36.266;32.294;2023-11-19T01:42:07;7.03;;;1.88;;
77955;SDS011;67152;36.266;32.294;2023-11-19T01:44:58;15.05;;;2.80;;
77955;SDS011;67152;36.266;32.294;2023-11-19T01:47:46;12.60;;;2.40;;
77955;SDS011;67152;36.266;32.294;2023-11-19T01:50:34;21.42;;;2.47;;
77955;SDS011;67152;36.266;32.294;2023-11-19T01:53:19;12.32;;;2.47;;
77955;SDS011;67152;36.266;32.294;2023-11-19T01:56:07;8.60;;;1.80;;
77955;SDS011;67152;36.266;32.294;2023-11-19T01:58:55;7.95;;;1.85;;
77955;SDS011;67152;36.266;32.294;2023-11-19T02:01:40;15.43;;;1.92;;
77955;SDS011;67152;36.266;32.294;2023-11-19T02:04:25;13.85;;;2.78;;
77955;SDS011;67152;36.266;32.294;2023-11-19T02:07:30;10.20;;;2.17;;
77955;SDS011;67152;36.266;32.294;2023-11-19T02:10:16;10.27;;;1.73;;
77955;SDS011;67152;36.266;32.294;2023-11-19T02:13:03;11.30;;;2.13;;
77955;SDS011;67152;36.266;32.294;2023-11-19T02:18:34;10.02;;;3.28;;
77955;SDS011;67152;36.266;32.294;2023-11-19T02:21:19;12.00;;;3.83;;
77955;SDS011;67152;36.266;32.294;2023-11-19T02:24:05;11.00;;;3.60;;
77955;SDS011;67152;36.266;32.294;2023-11-19T02:29:43;11.77;;;3.17;;
77955;SDS011;67152;36.266;32.294;2023-11-19T02:32:50;11.23;;;2.97;;
77955;SDS011;67152;36.266;32.294;2023-11-19T02:35:35;10.82;;;2.42;;
77955;SDS011;67152;36.266;32.294;2023-11-19T02:38:20;13.70;;;2.47;;
77955;SDS011;67152;36.266;32.294;2023-11-19T02:41:06;14.35;;;2.25;;
77955;SDS011;67152;36.266;32.294;2023-11-19T02:43:51;12.65;;;2.63;;
77955;SDS011;67152;36.266;32.294;2023-11-19T02:46:36;10.27;;;2.72;;
77955;SDS011;67152;36.266;32.294;2023-11-19T02:49:21;10.20;;;2.95;;
77955;SDS011;67152;36.266;32.294;2023-11-19T02:52:06;14.95;;;2.67;;
77955;SDS011;67152;36.266;32.294;2023-11-19T02:54:51;12.05;;;3.13;;
77955;SDS011;67152;36.266;32.294;2023-11-19T02:57:36;10.13;;;2.40;;
77955;SDS011;67152;36.266;32.294;2023-11-19T03:03:09;8.18;;;2.20;;
77955;SDS011;67152;36.266;32.294;2023-11-19T03:06:03;15.15;;;2.92;;
77955;SDS011;67152;36.266;32.294;2023-11-19T03:08:50;12.15;;;2.30;;
77955;SDS011;67152;36.266;32.294;2023-11-19T03:11:35;17.70;;;3.75;;
77955;SDS011;67152;36.266;32.294;2023-11-19T03:14:19;9.95;;;2.35;;
77955;SDS011;67152;36.266;32.294;2023-11-19T03:17:04;11.00;;;1.50;;
77955;SDS011;67152;36.266;32.294;2023-11-19T03:19:49;7.07;;;1.65;;
77955;SDS011;67152;36.266;32.294;2023-11-19T03:22:36;7.43;;;1.92;;
77955;SDS011;67152;36.266;32.294;2023-11-19T03:28:06;11.45;;;1.92;;
77955;SDS011;67152;36.266;32.294;2023-11-19T03:30:51;5.60;;;1.60;;
77955;SDS011;67152;36.266;32.294;2023-11-19T03:33:37;6.13;;;1.35;;
77955;SDS011;67152;36.266;32.294;2023-11-19T03:36:21;2.75;;;0.73;;
77955;SDS011;67152;36.266;32.294;2023-11-19T03:39:07;7.68;;;1.40;;
77955;SDS011;67152;36.266;32.294;2023-11-19T03:41:52;8.68;;;1.48;;
77955;SDS011;67152;36.266;32.294;2023-11-19T03:44:37;12.00;;;2.38;;
77955;SDS011;67152;36.266;32.294;2023-11-19T03:47:22;16.55;;;1.88;;
77955;SDS011;67152;36.266;32.294;2023-11-19T03:50:07;7.90;;;1.80;;
77955;SDS011;67152;36.266;32.294;2023-11-19T03:52:53;16.00;;;2.30;;
77955;SDS011;67152;36.266;32.294;2023-11-19T03:55:38;5.22;;;1.45;;
77955;SDS011;67152;36.266;32.294;2023-11-19T03:58:22;9.90;;;2.03;;
77955;SDS011;67152;36.266;32.294;2023-11-19T04:01:10;15.55;;;3.63;;
77955;SDS011;67152;36.266;32.294;2023-11-19T04:03:57;8.82;;;1.80;;
77955;SDS011;67152;36.266;32.294;2023-11-19T04:06:43;5.45;;;1.45;;
77955;SDS011;67152;36.266;32.294;2023-11-19T04:09:28;5.55;;;1.42;;
77955;SDS011;67152;36.266;32.294;2023-11-19T04:12:14;7.38;;;1.73;;
77955;SDS011;67152;36.266;32.294;2023-11-19T04:14:58;8.23;;;1.48;;
77955;SDS011;67152;36.266;32.294;2023-11-19T04:17:43;16.15;;;2.55;;
77955;SDS011;67152;36.266;32.294;2023-11-19T04:20:29;8.52;;;1.58;;
77955;SDS011;67152;36.266;32.294;2023-11-19T04:23:14;10.90;;;1.70;;
77955;SDS011;67152;36.266;32.294;2023-11-19T04:26:01;6.05;;;1.77;;
77955;SDS011;67152;36.266;32.294;2023-11-19T04:28:48;6.88;;;1.42;;
77955;SDS011;67152;36.266;32.294;2023-11-19T04:31:33;9.32;;;1.90;;
77955;SDS011;67152;36.266;32.294;2023-11-19T04:34:18;5.72;;;1.40;;
77955;SDS011;67152;36.266;32.294;2023-11-19T04:37:03;18.88;;;3.17;;
77955;SDS011;67152;36.266;32.294;2023-11-19T04:39:50;10.95;;;2.55;;
77955;SDS011;67152;36.266;32.294;2023-11-19T04:42:36;9.23;;;2.80;;
77955;SDS011;67152;36.266;32.294;2023-11-19T04:45:21;10.27;;;2.60;;
77955;SDS011;67152;36.266;32.294;2023-11-19T04:48:07;7.47;;;2.08;;
77955;SDS011;67152;36.266;32.294;2023-11-19T04:50:53;7.60;;;2.13;;
77955;SDS011;67152;36.266;32.294;2023-11-19T04:53:38;7.55;;;2.15;;
77955;SDS011;67152;36.266;32.294;2023-11-19T04:56:23;10.50;;;1.80;;
77955;SDS011;67152;36.266;32.294;2023-11-19T04:59:08;4.82;;;1.63;;
77955;SDS011;67152;36.266;32.294;2023-11-19T05:01:53;11.10;;;2.08;;
77955;SDS011;67152;36.266;32.294;2023-11-19T05:04:42;9.15;;;2.08;;
77955;SDS011;67152;36.266;32.294;2023-11-19T05:07:28;7.85;;;1.75;;
77955;SDS011;67152;36.266;32.294;2023-11-19T05:10:13;3.72;;;1.45;;
77955;SDS011;67152;36.266;32.294;2023-11-19T05:12:58;8.35;;;1.65;;
77955;SDS011;67152;36.266;32.294;2023-11-19T05:15:43;3.78;;;1.27;;
77955;SDS011;67152;36.266;32.294;2023-11-19T05:18:28;7.78;;;1.50;;
77955;SDS011;67152;36.266;32.294;2023-11-19T05:21:13;5.50;;;1.77;;
77955;SDS011;67152;36.266;32.294;2023-11-19T05:23:58;4.03;;;1.67;;
77955;SDS011;67152;36.266;32.294;2023-11-19T05:26:43;7.85;;;1.90;;
77955;SDS011;67152;36.266;32.294;2023-11-19T05:29:28;8.05;;;2.58;;
77955;SDS011;67152;36.266;32.294;2023-11-19T05:32:13;8.02;;;1.58;;
77955;SDS011;67152;36.266;32.294;2023-11-19T05:34:58;6.13;;;1.80;;
77955;SDS011;67152;36.266;32.294;2023-11-19T05:37:43;11.27;;;1.63;;
77955;SDS011;67152;36.266;32.294;2023-11-19T05:40:28;3.72;;;1.42;;
77955;SDS011;67152;36.266;32.294;2023-11-19T05:43:13;6.85;;;1.40;;
77955;SDS011;67152;36.266;32.294;2023-11-19T05:45:59;4.63;;;1.15;;
77955;SDS011;67152;36.266;32.294;2023-11-19T05:48:44;5.80;;;1.40;;
77955;SDS011;67152;36.266;32.294;2023-11-19T05:51:30;10.95;;;2.03;;
77955;SDS011;67152;36.266;32.294;2023-11-19T05:54:15;5.97;;;1.52;;
77955;SDS011;67152;36.266;32.294;2023-11-19T05:57:00;10.60;;;1.85;;
77955;SDS011;67152;36.266;32.294;2023-11-19T05:59:45;7.35;;;1.58;;
77955;SDS011;67152;36.266;32.294;2023-11-19T06:02:30;11.63;;;2.40;;
77955;SDS011;67152;36.266;32.294;2023-11-19T06:05:16;7.60;;;1.85;;
77955;SDS011;67152;36.266;32.294;2023-11-19T06:08:02;8.65;;;1.90;;
77955;SDS011;67152;36.266;32.294;2023-11-19T06:10:47;7.88;;;2.15;;
77955;SDS011;67152;36.266;32.294;2023-11-19T06:13:34;9.77;;;2.15;;
77955;SDS011;67152;36.266;32.294;2023-11-19T06:16:19;12.23;;;2.35;;
77955;SDS011;67152;36.266;32.294;2023-11-19T06:19:04;10.25;;;1.92;;
77955;SDS011;67152;36.266;32.294;2023-11-19T06:21:49;11.07;;;2.30;;
77955;SDS011;67152;36.266;32.294;2023-11-19T06:24:33;4.78;;;2.08;;
77955;SDS011;67152;36.266;32.294;2023-11-19T06:27:18;6.50;;;2.10;;
77955;SDS011;67152;36.266;32.294;2023-11-19T06:30:03;5.97;;;1.90;;
77955;SDS011;67152;36.266;32.294;2023-11-19T06:32:50;10.18;;;2.08;;
77955;SDS011;67152;36.266;32.294;2023-11-19T06:35:35;5.78;;;1.85;;
77955;SDS011;67152;36.266;32.294;2023-11-19T06:38:20;9.25;;;1.80;;
77955;SDS011;67152;36.266;32.294;2023-11-19T06:41:07;5.53;;;2.00;;
77955;SDS011;67152;36.266;32.294;2023-11-19T06:43:53;7.10;;;2.10;;
77955;SDS011;67152;36.266;32.294;2023-11-19T06:46:38;11.15;;;2.60;;
77955;SDS011;67152;36.266;32.294;2023-11-19T06:49:23;10.52;;;1.98;;
77955;SDS011;67152;36.266;32.294;2023-11-19T06:52:08;8.00;;;2.20;;
77955;SDS011;67152;36.266;32.294;2023-11-19T06:54:54;8.50;;;2.30;;
77955;SDS011;67152;36.266;32.294;2023-11-19T06:57:39;6.78;;;2.13;;
77955;SDS011;67152;36.266;32.294;2023-11-19T07:00:24;6.70;;;2.80;;
77955;SDS011;67152;36.266;32.294;2023-11-19T07:03:09;4.75;;;2.10;;
77955;SDS011;67152;36.266;32.294;2023-11-19T07:05:54;11.32;;;2.03;;
77955;SDS011;67152;36.266;32.294;2023-11-19T07:08:43;9.38;;;2.40;;
77955;SDS011;67152;36.266;32.294;2023-11-19T07:11:31;6.07;;;2.50;;
77955;SDS011;67152;36.266;32.294;2023-11-19T07:14:16;16.23;;;2.58;;
77955;SDS011;67152;36.266;32.294;2023-11-19T07:17:01;6.03;;;2.28;;
77955;SDS011;67152;36.266;32.294;2023-11-19T07:19:46;16.33;;;2.88;;
77955;SDS011;67152;36.266;32.294;2023-11-19T07:22:33;13.02;;;2.85;;
77955;SDS011;67152;36.266;32.294;2023-11-19T07:25:18;9.43;;;2.22;;
77955;SDS011;67152;36.266;32.294;2023-11-19T07:28:03;10.63;;;2.47;;
77955;SDS011;67152;36.266;32.294;2023-11-19T07:30:48;15.07;;;2.95;;
77955;SDS011;67152;36.266;32.294;2023-11-19T07:33:33;7.47;;;2.35;;
77955;SDS011;67152;36.266;32.294;2023-11-19T07:36:18;10.88;;;2.58;;
77955;SDS011;67152;36.266;32.294;2023-11-19T07:39:24;9.68;;;2.10;;
77955;SDS011;67152;36.266;32.294;2023-11-19T07:42:08;11.13;;;2.17;;
77955;SDS011;67152;36.266;32.294;2023-11-19T07:44:56;7.13;;;2.05;;
77955;SDS011;67152;36.266;32.294;2023-11-19T07:47:41;11.13;;;2.30;;
77955;SDS011;67152;36.266;32.294;2023-11-19T07:50:28;7.05;;;1.50;;
77955;SDS011;67152;36.266;32.294;2023-11-19T07:53:16;7.38;;;1.70;;
77955;SDS011;67152;36.266;32.294;2023-11-19T07:56:01;4.45;;;1.13;;
77955;SDS011;67152;36.266;32.294;2023-11-19T07:58:46;11.13;;;2.20;;
77955;SDS011;67152;36.266;32.294;2023-11-19T08:01:32;10.18;;;2.38;;
77955;SDS011;67152;36.266;32.294;2023-11-19T08:04:17;8.13;;;2.05;;
77955;SDS011;67152;36.266;32.294;2023-11-19T08:07:02;7.38;;;2.63;;
77955;SDS011;67152;36.266;32.294;2023-11-19T08:09:47;5.20;;;2.20;;
77955;SDS011;67152;36.266;32.294;2023-11-19T08:12:32;6.75;;;1.85;;
77955;SDS011;67152;36.266;32.294;2023-11-19T08:15:19;9.13;;;1.73;;
77955;SDS011;67152;36.266;32.294;2023-11-19T08:18:04;4.70;;;1.55;;
77955;SDS011;67152;36.266;32.294;2023-11-19T08:20:49;6.63;;;1.40;;
77955;SDS011;67152;36.266;32.294;2023-11-19T08:23:37;4.03;;;1.70;;
77955;SDS011;67152;36.266;32.294;2023-11-19T08:26:22;6.75;;;1.70;;
77955;SDS011;67152;36.266;32.294;2023-11-19T08:29:07;4.72;;;1.58;;
77955;SDS011;67152;36.266;32.294;2023-11-19T08:31:53;4.55;;;1.25;;
77955;SDS011;67152;36.266;32.294;2023-11-19T08:34:39;7.68;;;2.13;;
77955;SDS011;67152;36.266;32.294;2023-11-19T08:37:23;10.23;;;2.20;;
77955;SDS011;67152;36.266;32.294;2023-11-19T08:40:08;7.80;;;1.67;;
77955;SDS011;67152;36.266;32.294;2023-11-19T08:42:53;5.10;;;1.73;;
77955;SDS011;67152;36.266;32.294;2023-11-19T08:45:38;6.03;;;1.80;;
77955;SDS011;67152;36.266;32.294;2023-11-19T08:48:24;5.30;;;1.10;;
77955;SDS011;67152;36.266;32.294;2023-11-19T08:51:10;6.90;;;1.20;;
77955;SDS011;67152;36.266;32.294;2023-11-19T08:53:54;7.47;;;1.67;;
77955;SDS011;67152;36.266;32.294;2023-11-19T08:56:39;5.63;;;1.42;;
77955;SDS011;67152;36.266;32.294;2023-11-19T08:59:24;5.70;;;1.30;;
77955;SDS011;67152;36.266;32.294;2023-11-19T09:02:09;6.07;;;2.55;;
77955;SDS011;67152;36.266;32.294;2023-11-19T09:04:54;4.45;;;1.40;;
77955;SDS011;67152;36.266;32.294;2023-11-19T09:07:39;2.85;;;1.50;;
77955;SDS011;67152;36.266;32.294;2023-11-19T09:10:24;4.78;;;1.50;;
77955;SDS011;67152;36.266;32.294;2023-11-19T09:13:10;7.22;;;1.75;;
77955;SDS011;67152;36.266;32.294;2023-11-19T09:15:55;7.43;;;2.58;;
77955;SDS011;67152;36.266;32.294;2023-11-19T09:18:43;5.30;;;1.50;;
77955;SDS011;67152;36.266;32.294;2023-11-19T09:21:28;7.43;;;1.65;;
77955;SDS011;67152;36.266;32.294;2023-11-19T09:24:13;9.23;;;1.90;;
77955;SDS011;67152;36.266;32.294;2023-11-19T09:26:58;6.22;;;1.15;;
77955;SDS011;67152;36.266;32.294;2023-11-19T09:29:44;5.80;;;1.55;;
77955;SDS011;67152;36.266;32.294;2023-11-19T09:32:30;4.70;;;1.17;;
77955;SDS011;67152;36.266;32.294;2023-11-19T09:35:15;5.30;;;2.72;;
77955;SDS011;67152;36.266;32.294;2023-11-19T09:38:00;3.55;;;1.50;;
77955;SDS011;67152;36.266;32.294;2023-11-19T09:40:46;3.83;;;1.23;;
77955;SDS011;67152;36.266;32.294;2023-11-19T09:43:31;6.40;;;1.70;;
77955;SDS011;67152;36.266;32.294;2023-11-19T09:46:16;3.83;;;1.10;;
77955;SDS011;67152;36.266;32.294;2023-11-19T09:49:01;7.68;;;1.42;;
77955;SDS011;67152;36.266;32.294;2023-11-19T09:51:48;8.20;;;1.92;;
77955;SDS011;67152;36.266;32.294;2023-11-19T09:54:33;9.88;;;1.83;;
77955;SDS011;67152;36.266;32.294;2023-11-19T09:57:18;3.38;;;0.73;;
77955;SDS011;67152;36.266;32.294;2023-11-19T10:00:03;6.97;;;1.35;;
77955;SDS011;67152;36.266;32.294;2023-11-19T10:02:49;4.97;;;1.20;;
77955;SDS011;67152;36.266;32.294;2023-11-19T10:05:34;10.80;;;1.30;;
77955;SDS011;67152;36.266;32.294;2023-11-19T10:08:19;7.65;;;1.50;;
77955;SDS011;67152;36.266;32.294;2023-11-19T10:11:04;5.03;;;1.17;;
77955;SDS011;67152;36.266;32.294;2023-11-19T10:13:49;3.97;;;1.05;;
77955;SDS011;67152;36.266;32.294;2023-11-19T10:16:36;3.70;;;1.10;;
77955;SDS011;67152;36.266;32.294;2023-11-19T10:19:22;4.80;;;1.35;;
77955;SDS011;67152;36.266;32.294;2023-11-19T10:22:07;2.65;;;0.90;;
77955;SDS011;67152;36.266;32.294;2023-11-19T10:24:52;2.92;;;1.20;;
77955;SDS011;67152;36.266;32.294;2023-11-19T10:27:38;4.63;;;1.25;;
77955;SDS011;67152;36.266;32.294;2023-11-19T10:30:24;7.90;;;1.00;;
77955;SDS011;67152;36.266;32.294;2023-11-19T10:33:11;9.75;;;1.48;;
77955;SDS011;67152;36.266;32.294;2023-11-19T10:36:02;4.72;;;1.13;;
77955;SDS011;67152;36.266;32.294;2023-11-19T10:38:53;7.85;;;1.23;;
77955;SDS011;67152;36.266;32.294;2023-11-19T10:41:39;8.43;;;1.38;;
77955;SDS011;67152;36.266;32.294;2023-11-19T10:44:32;5.65;;;1.50;;
77955;SDS011;67152;36.266;32.294;2023-11-19T10:47:20;6.15;;;1.00;;
77955;SDS011;67152;36.266;32.294;2023-11-19T10:50:07;2.30;;;0.77;;
77955;SDS011;67152;36.266;32.294;2023-11-19T10:52:55;3.25;;;0.85;;
77955;SDS011;67152;36.266;32.294;2023-11-19T10:55:46;2.92;;;0.93;;
77955;SDS011;67152;36.266;32.294;2023-11-19T10:58:32;5.25;;;1.15;;
77955;SDS011;67152;36.266;32.294;2023-11-19T11:01:22;4.25;;;1.08;;
77955;SDS011;67152;36.266;32.294;2023-11-19T11:04:12;7.43;;;1.17;;
77955;SDS011;67152;36.266;32.294;2023-11-19T11:06:59;6.50;;;1.23;;
77955;SDS011;67152;36.266;32.294;2023-11-19T11:09:45;4.38;;;1.42;;
77955;SDS011;67152;36.266;32.294;2023-11-19T11:12:34;4.78;;;1.50;;
77955;SDS011;67152;36.266;32.294;2023-11-19T11:15:24;4.75;;;1.48;;
77955;SDS011;67152;36.266;32.294;2023-11-19T11:18:13;7.85;;;1.92;;
77955;SDS011;67152;36.266;32.294;2023-11-19T11:21:08;5.15;;;1.45;;
77955;SDS011;67152;36.266;32.294;2023-11-19T11:23:59;6.75;;;1.92;;
77955;SDS011;67152;36.266;32.294;2023-11-19T11:29:41;3.85;;;1.17;;
77955;SDS011;67152;36.266;32.294;2023-11-19T11:32:43;3.95;;;1.45;;
77955;SDS011;67152;36.266;32.294;2023-11-19T11:38:47;6.07;;;1.48;;
77955;SDS011;67152;36.266;32.294;2023-11-19T11:41:33;4.18;;;0.85;;
77955;SDS011;67152;36.266;32.294;2023-11-19T11:44:18;9.88;;;1.30;;
77955;SDS011;67152;36.266;32.294;2023-11-19T11:50:26;9.63;;;0.82;;
77955;SDS011;67152;36.266;32.294;2023-11-19T11:53:18;3.78;;;1.30;;
77955;SDS011;67152;36.266;32.294;2023-11-19T11:56:09;6.78;;;1.02;;
77955;SDS011;67152;36.266;32.294;2023-11-19T11:58:54;3.97;;;1.30;;
77955;SDS011;67152;36.266;32.294;2023-11-19T12:01:40;5.93;;;1.50;;
77955;SDS011;67152;36.266;32.294;2023-11-19T12:04:43;3.85;;;0.75;;
77955;SDS011;67152;36.266;32.294;2023-11-19T12:07:31;8.82;;;1.30;;
77955;SDS011;67152;36.266;32.294;2023-11-19T12:10:17;3.57;;;1.03;;
77955;SDS011;67152;36.266;32.294;2023-11-19T12:13:06;6.95;;;1.25;;
77955;SDS011;67152;36.266;32.294;2023-11-19T12:18:42;5.30;;;1.10;;
77955;SDS011;67152;36.266;32.294;2023-11-19T12:21:28;2.70;;;0.82;;
77955;SDS011;67152;36.266;32.294;2023-11-19T12:24:17;8.88;;;1.20;;
77955;SDS011;67152;36.266;32.294;2023-11-19T12:27:03;2.85;;;1.45;;
77955;SDS011;67152;36.266;32.294;2023-11-19T12:29:49;1.73;;;0.80;;
77955;SDS011;67152;36.266;32.294;2023-11-19T12:32:38;6.20;;;1.20;;
77955;SDS011;67152;36.266;32.294;2023-11-19T12:35:24;11.85;;;1.88;;
77955;SDS011;67152;36.266;32.294;2023-11-19T12:41:09;4.70;;;1.47;;
77955;SDS011;67152;36.266;32.294;2023-11-19T12:44:08;6.53;;;1.20;;
77955;SDS011;67152;36.266;32.294;2023-11-19T12:47:03;10.18;;;1.45;;
77955;SDS011;67152;36.266;32.294;2023-11-19T12:49:58;3.17;;;1.30;;
77955;SDS011;67152;36.266;32.294;2023-11-19T12:52:42;4.97;;;1.30;;
77955;SDS011;67152;36.266;32.294;2023-11-19T12:55:28;3.15;;;1.10;;
77955;SDS011;67152;36.266;32.294;2023-11-19T12:58:30;3.13;;;1.00;;
77955;SDS011;67152;36.266;32.294;2023-11-19T13:01:17;9.25;;;1.80;;
77955;SDS011;67152;36.266;32.294;2023-11-19T13:04:15;2.58;;;1.05;;
77955;SDS011;67152;36.266;32.294;2023-11-19T13:07:00;6.63;;;1.60;;
77955;SDS011;67152;36.266;32.294;2023-11-19T13:09:48;9.98;;;1.60;;
77955;SDS011;67152;36.266;32.294;2023-11-19T13:12:33;4.05;;;0.95;;
77955;SDS011;67152;36.266;32.294;2023-11-19T13:15:24;8.52;;;1.58;;
77955;SDS011;67152;36.266;32.294;2023-11-19T13:18:10;3.03;;;0.90;;
77955;SDS011;67152;36.266;32.294;2023-11-19T13:20:55;3.95;;;1.10;;
77955;SDS011;67152;36.266;32.294;2023-11-19T13:23:41;8.23;;;1.65;;
77955;SDS011;67152;36.266;32.294;2023-11-19T13:26:27;6.70;;;1.58;;
77955;SDS011;67152;36.266;32.294;2023-11-19T13:29:12;7.18;;;2.00;;
77955;SDS011;67152;36.266;32.294;2023-11-19T13:31:57;6.18;;;1.75;;
77955;SDS011;67152;36.266;32.294;2023-11-19T13:34:42;8.43;;;3.33;;
77955;SDS011;67152;36.266;32.294;2023-11-19T13:37:27;9.05;;;2.40;;
77955;SDS011;67152;36.266;32.294;2023-11-19T13:40:12;5.07;;;1.63;;
77955;SDS011;67152;36.266;32.294;2023-11-19T13:43:17;6.07;;;1.38;;
77955;SDS011;67152;36.266;32.294;2023-11-19T13:46:02;2.83;;;1.20;;
77955;SDS011;67152;36.266;32.294;2023-11-19T13:48:47;5.25;;;1.40;;
77955;SDS011;67152;36.266;32.294;2023-11-19T13:51:33;8.33;;;2.30;;
77955;SDS011;67152;36.266;32.294;2023-11-19T13:54:19;6.68;;;2.75;;
77955;SDS011;67152;36.266;32.294;2023-11-19T13:57:05;5.22;;;1.65;;
77955;SDS011;67152;36.266;32.294;2023-11-19T13:59:50;4.85;;;1.27;;
77955;SDS011;67152;36.266;32.294;2023-11-19T14:02:35;4.80;;;1.08;;
77955;SDS011;67152;36.266;32.294;2023-11-19T14:05:20;2.83;;;1.05;;
77955;SDS011;67152;36.266;32.294;2023-11-19T14:08:05;5.93;;;1.00;;
77955;SDS011;67152;36.266;32.294;2023-11-19T14:10:55;10.57;;;1.50;;
77955;SDS011;67152;36.266;32.294;2023-11-19T14:13:40;6.75;;;2.20;;
77955;SDS011;67152;36.266;32.294;2023-11-19T14:16:29;6.45;;;2.10;;
77955;SDS011;67152;36.266;32.294;2023-11-19T14:19:15;4.70;;;1.52;;
77955;SDS011;67152;36.266;32.294;2023-11-19T14:22:00;4.10;;;1.80;;
77955;SDS011;67152;36.266;32.294;2023-11-19T14:24:46;7.88;;;2.13;;
77955;SDS011;67152;36.266;32.294;2023-11-19T14:27:31;13.38;;;2.97;;
77955;SDS011;67152;36.266;32.294;2023-11-19T14:30:17;10.05;;;1.88;;
77955;SDS011;67152;36.266;32.294;2023-11-19T14:33:02;7.30;;;2.03;;
77955;SDS011;67152;36.266;32.294;2023-11-19T14:35:47;10.60;;;2.15;;
77955;SDS011;67152;36.266;32.294;2023-11-19T14:38:32;8.23;;;2.88;;
77955;SDS011;67152;36.266;32.294;2023-11-19T14:41:17;10.52;;;3.10;;
77955;SDS011;67152;36.266;32.294;2023-11-19T14:44:02;16.92;;;4.97;;
77955;SDS011;67152;36.266;32.294;2023-11-19T14:46:47;10.20;;;5.35;;
77955;SDS011;67152;36.266;32.294;2023-11-19T14:49:34;20.75;;;5.90;;
77955;SDS011;67152;36.266;32.294;2023-11-19T14:52:19;13.32;;;6.10;;
77955;SDS011;67152;36.266;32.294;2023-11-19T14:55:05;14.25;;;4.47;;
77955;SDS011;67152;36.266;32.294;2023-11-19T14:57:49;10.70;;;2.92;;
77955;SDS011;67152;36.266;32.294;2023-11-19T15:00:35;12.65;;;3.75;;
77955;SDS011;67152;36.266;32.294;2023-11-19T15:03:20;10.63;;;3.78;;
77955;SDS011;67152;36.266;32.294;2023-11-19T15:06:06;5.05;;;2.40;;
77955;SDS011;67152;36.266;32.294;2023-11-19T15:08:52;2.25;;;1.25;;
77955;SDS011;67152;36.266;32.294;2023-11-19T15:11:38;4.20;;;1.63;;
77955;SDS011;67152;36.266;32.294;2023-11-19T15:14:23;2.65;;;1.58;;
77955;SDS011;67152;36.266;32.294;2023-11-19T15:17:09;2.95;;;1.45;;
77955;SDS011;67152;36.266;32.294;2023-11-19T15:19:54;1.90;;;1.23;;
77955;SDS011;67152;36.266;32.294;2023-11-19T15:22:39;0.77;;;0.47;;
77955;SDS011;67152;36.266;32.294;2023-11-19T15:25:24;2.58;;;0.93;;
77955;SDS011;67152;36.266;32.294;2023-11-19T15:28:09;2.17;;;0.60;;
77955;SDS011;67152;36.266;32.294;2023-11-19T15:30:54;1.92;;;0.70;;
77955;SDS011;67152;36.266;32.294;2023-11-19T15:33:39;2.25;;;0.90;;
77955;SDS011;67152;36.266;32.294;2023-11-19T15:36:24;2.67;;;1.00;;
77955;SDS011;67152;36.266;32.294;2023-11-19T15:39:09;1.33;;;0.70;;
77955;SDS011;67152;36.266;32.294;2023-11-19T15:41:54;5.05;;;0.85;;
77955;SDS011;67152;36.266;32.294;2023-11-19T15:44:40;1.73;;;0.88;;
77955;SDS011;67152;36.266;32.294;2023-11-19T15:47:25;32.88;;;2.15;;
77955;SDS011;67152;36.266;32.294;2023-11-19T15:50:10;10.23;;;1.10;;
77955;SDS011;67152;36.266;32.294;2023-11-19T15:52:55;1.67;;;0.70;;
77955;SDS011;67152;36.266;32.294;2023-11-19T15:55:40;5.55;;;0.60;;
77955;SDS011;67152;36.266;32.294;2023-11-19T15:58:26;3.80;;;0.90;;
77955;SDS011;67152;36.266;32.294;2023-11-19T16:01:11;4.22;;;0.68;;
77955;SDS011;67152;36.266;32.294;2023-11-19T16:03:56;7.90;;;1.05;;
77955;SDS011;67152;36.266;32.294;2023-11-19T16:06:41;0.52;;;0.50;;
77955;SDS011;67152;36.266;32.294;2023-11-19T16:09:27;2.58;;;0.77;;
77955;SDS011;67152;36.266;32.294;2023-11-19T16:12:12;1.52;;;0.90;;
77955;SDS011;67152;36.266;32.294;2023-11-19T16:14:57;1.25;;;0.90;;
77955;SDS011;67152;36.266;32.294;2023-11-19T16:17:42;2.88;;;1.40;;
77955;SDS011;67152;36.266;32.294;2023-11-19T16:20:28;4.47;;;1.08;;
77955;SDS011;67152;36.266;32.294;2023-11-19T16:23:15;1.63;;;0.95;;
77955;SDS011;67152;36.266;32.294;2023-11-19T16:26:01;4.90;;;1.20;;
77955;SDS011;67152;36.266;32.294;2023-11-19T16:28:47;1.50;;;1.15;;
77955;SDS011;67152;36.266;32.294;2023-11-19T16:31:32;5.30;;;1.20;;
77955;SDS011;67152;36.266;32.294;2023-11-19T16:34:18;1.35;;;0.80;;
77955;SDS011;67152;36.266;32.294;2023-11-19T16:37:03;1.92;;;1.40;;
77955;SDS011;67152;36.266;32.294;2023-11-19T16:42:34;5.75;;;1.55;;
77955;SDS011;67152;36.266;32.294;2023-11-19T16:45:20;3.03;;;1.17;;
77955;SDS011;67152;36.266;32.294;2023-11-19T16:48:06;2.83;;;1.70;;
77955;SDS011;67152;36.266;32.294;2023-11-19T16:50:51;1.75;;;1.23;;
77955;SDS011;67152;36.266;32.294;2023-11-19T16:53:36;2.25;;;1.38;;